createdAt,value
2023-05-25T00:00:20.765Z,14.52
2023-05-25T00:02:24.526Z,14.51
2023-05-25T00:04:30.371Z,14.48
2023-05-25T00:06:37.301Z,14.49
2023-05-25T00:08:41.079Z,14.43
2023-05-25T00:10:43.654Z,14.41
2023-05-25T00:12:46.490Z,14.37
2023-05-25T00:14:50.593Z,14.34
2023-05-25T00:16:53.284Z,14.35
2023-05-25T00:18:57.580Z,14.34
2023-05-25T00:21:06.719Z,14.36
2023-05-25T00:23:09.383Z,14.36
2023-05-25T00:25:12.091Z,14.37
2023-05-25T00:27:14.655Z,14.37
2023-05-25T00:29:17.277Z,14.38
2023-05-25T00:31:21.615Z,14.34
2023-05-25T00:33:24.388Z,14.34
2023-05-25T00:35:27.439Z,14.35
2023-05-25T00:37:30.047Z,14.35
2023-05-25T00:39:32.718Z,14.33
2023-05-25T00:41:36.589Z,14.31
2023-05-25T00:43:39.370Z,14.29
2023-05-25T00:45:42.092Z,14.30
2023-05-25T00:47:46.743Z,14.25
2023-05-25T00:49:49.424Z,14.24
2023-05-25T00:51:53.814Z,14.23
2023-05-25T00:53:56.453Z,14.22
2023-05-25T00:56:06.096Z,14.17
2023-05-25T00:58:09.529Z,14.18
2023-05-25T01:00:13.909Z,14.18
2023-05-25T01:02:19.331Z,14.19
2023-05-25T01:04:24.378Z,14.19
2023-05-25T01:06:32.100Z,14.17
2023-05-25T01:08:36.651Z,14.17
2023-05-25T01:10:40.468Z,14.15
2023-05-25T01:12:45.397Z,14.12
2023-05-25T01:14:49.208Z,14.04
2023-05-25T01:16:53.467Z,14.03
2023-05-25T01:18:56.466Z,14.00
2023-05-25T01:21:13.358Z,13.92
2023-05-25T01:23:17.633Z,13.90
2023-05-25T01:25:25.239Z,13.88
2023-05-25T01:27:36.577Z,13.85
2023-05-25T01:29:43.340Z,13.80
2023-05-25T01:31:47.199Z,13.77
2023-05-25T01:33:51.475Z,13.75
2023-05-25T01:35:54.459Z,13.69
2023-05-25T01:37:59.987Z,13.65
2023-05-25T01:40:02.639Z,13.60
2023-05-25T01:42:05.723Z,13.57
2023-05-25T01:44:09.079Z,13.55
2023-05-25T01:46:19.412Z,13.54
2023-05-25T01:48:31.372Z,13.47
2023-05-25T01:50:37.481Z,13.40
2023-05-25T01:52:45.767Z,13.35
2023-05-25T01:54:54.310Z,13.32
2023-05-25T01:57:02.329Z,13.30
2023-05-25T01:59:08.211Z,13.30
2023-05-25T02:01:11.661Z,13.30
2023-05-25T02:03:14.414Z,13.30
2023-05-25T02:05:17.170Z,13.29
2023-05-25T02:07:19.743Z,13.29
2023-05-25T02:09:22.625Z,13.30
2023-05-25T02:11:27.741Z,13.29
2023-05-25T02:13:30.384Z,13.28
2023-05-25T02:15:34.524Z,13.26
2023-05-25T02:17:37.741Z,13.26
2023-05-25T02:19:40.390Z,13.25
2023-05-25T02:21:43.137Z,13.25
2023-05-25T02:23:47.778Z,13.25
2023-05-25T02:25:51.691Z,13.23
2023-05-25T02:27:55.832Z,13.20
2023-05-25T02:29:58.495Z,13.20
2023-05-25T02:32:01.107Z,13.15
2023-05-25T02:34:04.064Z,13.11
2023-05-25T02:36:07.197Z,13.10
2023-05-25T02:38:09.809Z,13.08
2023-05-25T02:40:14.099Z,13.08
2023-05-25T02:42:16.726Z,13.05
2023-05-25T02:44:20.657Z,13.04
2023-05-25T02:46:23.694Z,13.02
2023-05-25T02:48:26.383Z,13.00
2023-05-25T02:50:29.021Z,12.97
2023-05-25T02:52:32.840Z,12.95
2023-05-25T02:54:36.250Z,12.91
2023-05-25T02:56:38.888Z,12.87
2023-05-25T02:58:42.523Z,12.84
2023-05-25T03:00:46.884Z,12.77
2023-05-25T03:02:49.931Z,12.68
2023-05-25T03:04:53.916Z,12.59
2023-05-25T03:06:56.701Z,12.57
2023-05-25T03:08:59.299Z,12.54
2023-05-25T03:11:01.954Z,12.49
2023-05-25T03:13:04.615Z,12.47
2023-05-25T03:15:09.231Z,12.43
2023-05-25T03:17:13.187Z,12.43
2023-05-25T03:19:16.134Z,12.44
2023-05-25T03:21:18.867Z,12.46
2023-05-25T03:23:21.591Z,12.45
2023-05-25T03:25:24.159Z,12.39
2023-05-25T03:27:26.803Z,12.32
2023-05-25T03:29:29.389Z,12.31
2023-05-25T03:31:32.017Z,12.20
2023-05-25T03:33:36.007Z,12.12
2023-05-25T03:35:38.660Z,12.06
2023-05-25T03:37:41.369Z,12.00
2023-05-25T03:39:44.005Z,11.98
2023-05-25T03:41:46.604Z,12.00
2023-05-25T03:43:49.239Z,12.01
2023-05-25T03:45:51.852Z,12.03
2023-05-25T03:47:54.579Z,12.06
2023-05-25T03:49:58.645Z,12.11
2023-05-25T03:52:01.526Z,12.15
2023-05-25T03:54:04.112Z,12.21
2023-05-25T03:56:07.614Z,12.22
2023-05-25T03:58:10.967Z,12.16
2023-05-25T04:00:15.556Z,12.11
2023-05-25T04:02:18.183Z,12.09
2023-05-25T04:04:21.987Z,12.03
2023-05-25T04:06:26.293Z,12.01
2023-05-25T04:08:30.138Z,12.00
2023-05-25T04:10:32.741Z,12.01
2023-05-25T04:12:36.254Z,12.05
2023-05-25T04:14:39.615Z,12.10
2023-05-25T04:16:42.362Z,12.14
2023-05-25T04:18:45.104Z,12.19
2023-05-25T04:20:47.912Z,12.23
2023-05-25T04:22:51.830Z,12.27
2023-05-25T04:24:54.707Z,12.25
2023-05-25T04:26:57.660Z,12.27
2023-05-25T04:29:01.926Z,12.27
2023-05-25T04:31:05.362Z,12.28
2023-05-25T04:33:08.176Z,12.30
2023-05-25T04:35:10.778Z,12.30
2023-05-25T04:37:13.461Z,12.36
2023-05-25T04:39:17.534Z,12.35
2023-05-25T04:41:20.177Z,12.34
2023-05-25T04:43:22.794Z,12.33
2023-05-25T04:45:25.958Z,12.34
2023-05-25T04:47:29.318Z,12.35
2023-05-25T04:49:32.089Z,12.36
2023-05-25T04:51:35.810Z,12.38
2023-05-25T04:53:38.584Z,12.39
2023-05-25T04:55:42.673Z,12.42
2023-05-25T04:57:45.493Z,12.43
2023-05-25T04:59:48.086Z,12.44
2023-05-25T05:01:53.623Z,12.45
2023-05-25T05:03:56.351Z,12.49
2023-05-25T05:05:59.045Z,12.50
2023-05-25T05:08:03.669Z,12.51
2023-05-25T05:10:07.229Z,12.53
2023-05-25T05:12:12.197Z,12.55
2023-05-25T05:14:14.919Z,12.57
2023-05-25T05:16:17.579Z,12.56
2023-05-25T05:18:20.273Z,12.59
2023-05-25T05:20:22.993Z,12.60
2023-05-25T05:22:25.615Z,12.60
2023-05-25T05:24:28.288Z,12.64
2023-05-25T05:26:34.274Z,12.66
2023-05-25T05:28:48.424Z,12.69
2023-05-25T05:30:51.084Z,12.71
2023-05-25T05:32:53.725Z,12.75
2023-05-25T05:34:56.356Z,12.79
2023-05-25T05:37:00.112Z,12.80
2023-05-25T05:39:03.470Z,12.82
2023-05-25T05:41:11.264Z,12.80
2023-05-25T05:43:15.217Z,12.86
2023-05-25T05:45:19.230Z,12.91
2023-05-25T05:47:22.299Z,12.97
2023-05-25T05:49:24.900Z,13.04
2023-05-25T05:51:27.529Z,13.07
2023-05-25T05:53:30.101Z,13.11
2023-05-25T05:55:32.948Z,13.15
2023-05-25T05:57:35.615Z,13.18
2023-05-25T05:59:38.296Z,13.18
2023-05-25T06:01:44.141Z,13.22
2023-05-25T06:03:47.514Z,13.28
2023-05-25T06:05:50.371Z,13.30
2023-05-25T06:07:53.002Z,13.28
2023-05-25T06:09:56.016Z,13.31
2023-05-25T06:11:58.614Z,13.33
2023-05-25T06:14:01.222Z,13.36
2023-05-25T06:16:03.894Z,13.42
2023-05-25T06:18:08.097Z,13.46
2023-05-25T06:20:11.821Z,13.48
2023-05-25T06:22:14.440Z,13.49
2023-05-25T06:24:17.167Z,13.51
2023-05-25T06:26:19.854Z,13.56
2023-05-25T06:28:22.442Z,13.53
2023-05-25T06:30:25.125Z,13.58
2023-05-25T06:32:27.780Z,13.63
2023-05-25T06:34:32.237Z,13.68
2023-05-25T06:36:34.995Z,13.75
2023-05-25T06:38:37.637Z,13.79
2023-05-25T06:40:40.288Z,13.84
2023-05-25T06:42:43.123Z,13.90
2023-05-25T06:44:45.686Z,13.93
2023-05-25T06:46:48.348Z,13.98
2023-05-25T06:48:51.033Z,14.01
2023-05-25T06:50:55.006Z,14.04
2023-05-25T06:52:59.024Z,14.08
2023-05-25T06:55:03.985Z,14.15
2023-05-25T06:57:07.007Z,14.14
2023-05-25T06:59:09.648Z,14.19
2023-05-25T07:01:12.236Z,14.24
2023-05-25T07:03:14.928Z,14.29
2023-05-25T07:05:17.644Z,14.31
2023-05-25T07:07:22.354Z,14.36
2023-05-25T07:09:24.957Z,14.39
2023-05-25T07:11:28.006Z,14.43
2023-05-25T07:13:30.721Z,14.34
2023-05-25T07:15:33.304Z,14.41
2023-05-25T07:17:36.528Z,14.42
2023-05-25T07:19:39.288Z,14.47
2023-05-25T07:21:41.986Z,14.52
2023-05-25T07:23:45.981Z,14.52
2023-05-25T07:25:48.614Z,14.59
2023-05-25T07:27:55.028Z,14.66
2023-05-25T07:29:57.659Z,14.74
2023-05-25T07:32:00.334Z,14.70
2023-05-25T07:34:03.212Z,14.77
2023-05-25T07:36:06.572Z,14.83
2023-05-25T07:38:10.618Z,14.89
2023-05-25T07:40:14.829Z,14.92
2023-05-25T07:42:20.867Z,14.96
2023-05-25T07:44:23.627Z,14.99
2023-05-25T07:46:26.542Z,14.97
2023-05-25T07:48:29.581Z,14.98
2023-05-25T07:50:32.135Z,15.00
2023-05-25T07:52:34.741Z,14.99
2023-05-25T07:54:40.191Z,14.96
2023-05-25T07:56:44.411Z,14.94
2023-05-25T07:58:47.108Z,14.91
2023-05-25T08:00:50.402Z,14.96
2023-05-25T08:02:53.188Z,14.98
2023-05-25T08:04:56.173Z,15.01
2023-05-25T08:06:58.795Z,15.02
2023-05-25T08:09:01.541Z,15.04
2023-05-25T08:11:04.237Z,14.98
2023-05-25T08:13:08.239Z,15.05
2023-05-25T08:15:11.097Z,15.19
2023-05-25T08:17:13.827Z,15.22
2023-05-25T08:19:16.480Z,15.34
2023-05-25T08:21:19.241Z,15.36
2023-05-25T08:23:21.977Z,15.48
2023-05-25T08:25:24.587Z,15.59
2023-05-25T08:27:27.297Z,15.66
2023-05-25T08:29:31.356Z,15.73
2023-05-25T08:31:34.250Z,15.75
2023-05-25T08:33:38.406Z,15.80
2023-05-25T08:35:42.950Z,15.90
2023-05-25T08:37:46.702Z,15.96
2023-05-25T08:39:49.286Z,15.91
2023-05-25T08:41:52.327Z,15.94
2023-05-25T08:43:55.137Z,16.02
2023-05-25T08:46:04.195Z,15.99
2023-05-25T08:48:13.825Z,16.02
2023-05-25T08:50:18.487Z,16.04
2023-05-25T08:52:23.316Z,16.07
2023-05-25T08:54:30.904Z,16.14
2023-05-25T08:56:36.883Z,16.19
2023-05-25T08:58:46.326Z,16.20
2023-05-25T09:00:55.691Z,16.23
2023-05-25T09:03:06.872Z,16.21
2023-05-25T09:05:09.974Z,16.17
2023-05-25T09:07:13.180Z,16.27
2023-05-25T09:09:15.867Z,16.25
2023-05-25T09:11:32.010Z,16.32
2023-05-25T09:13:39.685Z,16.26
2023-05-25T09:15:42.832Z,16.28
2023-05-25T09:17:45.719Z,16.26
2023-05-25T09:19:51.080Z,16.33
2023-05-25T09:22:03.257Z,16.37
2023-05-25T09:24:17.494Z,16.40
2023-05-25T09:26:20.760Z,16.44
2023-05-25T09:28:27.311Z,16.45
2023-05-25T09:30:32.863Z,16.48
2023-05-25T09:32:36.374Z,16.48
2023-05-25T09:34:39.067Z,16.51
2023-05-25T09:36:43.422Z,16.55
2023-05-25T09:38:46.873Z,16.54
2023-05-25T09:40:49.744Z,16.56
2023-05-25T09:42:52.465Z,16.61
2023-05-25T09:44:55.087Z,16.72
2023-05-25T09:46:57.719Z,16.64
2023-05-25T09:49:01.209Z,16.81
2023-05-25T09:51:03.946Z,16.87
2023-05-25T09:53:08.401Z,16.98
2023-05-25T09:55:12.552Z,16.87
2023-05-25T09:57:16.130Z,16.97
2023-05-25T09:59:18.814Z,16.91
2023-05-25T10:01:21.506Z,17.01
2023-05-25T10:03:24.287Z,17.01
2023-05-25T10:05:26.865Z,17.06
2023-05-25T10:07:30.165Z,17.11
2023-05-25T10:09:38.760Z,17.14
2023-05-25T10:11:44.466Z,17.18
2023-05-25T10:13:48.125Z,17.21
2023-05-25T10:15:54.375Z,17.31
2023-05-25T10:17:59.327Z,17.40
2023-05-25T10:20:02.742Z,17.51
2023-05-25T10:22:14.739Z,17.63
2023-05-25T10:24:27.820Z,17.70
2023-05-25T10:26:36.526Z,17.82
2023-05-25T10:28:41.088Z,17.94
2023-05-25T10:30:44.262Z,18.01
2023-05-25T10:32:48.919Z,18.10
2023-05-25T10:34:53.267Z,18.08
2023-05-25T10:36:57.402Z,18.13
2023-05-25T10:39:02.034Z,18.06
2023-05-25T10:41:05.676Z,18.14
2023-05-25T10:43:09.653Z,18.20
2023-05-25T10:45:13.015Z,18.17
2023-05-25T10:47:17.152Z,18.25
2023-05-25T10:49:28.357Z,18.24
2023-05-25T10:51:38.633Z,18.34
2023-05-25T10:53:45.832Z,18.42
2023-05-25T10:56:01.547Z,18.50
2023-05-25T10:58:13.186Z,18.55
2023-05-25T11:00:16.846Z,18.58
2023-05-25T11:02:23.363Z,18.63
2023-05-25T11:04:26.320Z,18.67
2023-05-25T11:07:08.292Z,18.69
2023-05-25T11:09:25.197Z,18.82
2023-05-25T11:12:03.513Z,18.92
2023-05-25T11:14:22.112Z,19.00
2023-05-25T11:16:36.314Z,19.02
2023-05-25T11:18:39.320Z,19.06
2023-05-25T11:20:42.160Z,19.11
2023-05-25T11:22:44.825Z,19.01
2023-05-25T11:24:48.176Z,19.16
2023-05-25T11:26:55.991Z,19.13
2023-05-25T11:28:59.872Z,19.08
2023-05-25T11:31:07.822Z,19.04
2023-05-25T11:33:11.040Z,19.14
2023-05-25T11:35:14.705Z,19.13
2023-05-25T11:37:21.090Z,19.15
2023-05-25T11:39:24.102Z,19.12
2023-05-25T11:41:26.849Z,19.14
2023-05-25T11:43:29.756Z,19.10
2023-05-25T11:45:34.439Z,19.14
2023-05-25T11:47:38.502Z,19.14
2023-05-25T11:49:44.179Z,19.19
2023-05-25T11:51:46.844Z,19.18
2023-05-25T11:53:49.759Z,19.20
2023-05-25T11:56:00.563Z,19.20
2023-05-25T11:58:10.444Z,19.24
2023-05-25T12:00:14.357Z,19.34
2023-05-25T12:02:17.174Z,19.46
2023-05-25T12:04:23.857Z,19.35
2023-05-25T12:06:28.535Z,19.45
2023-05-25T12:08:34.360Z,19.46
2023-05-25T12:10:50.637Z,19.51
2023-05-25T12:12:58.122Z,19.53
2023-05-25T12:15:00.839Z,19.56
2023-05-25T12:17:03.613Z,19.66
2023-05-25T12:19:07.538Z,19.67
2023-05-25T12:21:12.267Z,19.86
2023-05-25T12:23:15.094Z,19.88
2023-05-25T12:25:21.216Z,20.02
2023-05-25T12:27:24.023Z,20.04
2023-05-25T12:29:26.784Z,20.16
2023-05-25T12:31:31.496Z,20.33
2023-05-25T12:33:34.227Z,20.44
2023-05-25T12:35:46.797Z,20.53
2023-05-25T12:37:50.836Z,20.54
2023-05-25T12:39:53.461Z,20.64
2023-05-25T12:41:57.281Z,20.69
2023-05-25T12:44:00.644Z,20.61
2023-05-25T12:46:03.666Z,20.62
2023-05-25T12:48:06.544Z,20.58
2023-05-25T12:50:13.741Z,20.70
2023-05-25T12:52:35.214Z,20.55
2023-05-25T12:54:48.415Z,20.52
2023-05-25T12:56:57.263Z,20.47
2023-05-25T12:59:17.759Z,20.53
2023-05-25T13:01:20.375Z,20.46
2023-05-25T13:03:23.033Z,20.54
2023-05-25T13:05:26.828Z,20.61
2023-05-25T13:07:30.138Z,20.56
2023-05-25T13:09:33.696Z,20.62
2023-05-25T13:11:37.727Z,20.71
2023-05-25T13:13:40.640Z,20.83
2023-05-25T13:15:45.349Z,20.74
2023-05-25T13:17:48.543Z,20.94
2023-05-25T13:19:51.223Z,20.97
2023-05-25T13:21:55.946Z,21.12
2023-05-25T13:23:58.575Z,21.24
2023-05-25T13:26:01.165Z,21.22
2023-05-25T13:28:06.383Z,21.22
2023-05-25T13:30:11.773Z,21.10
2023-05-25T13:32:14.844Z,21.28
2023-05-25T13:34:17.671Z,21.46
2023-05-25T13:36:20.457Z,21.87
2023-05-25T13:38:23.070Z,22.74
2023-05-25T13:40:25.715Z,24.01
2023-05-25T13:42:28.300Z,25.45
2023-05-25T13:44:33.948Z,26.73
2023-05-25T13:46:37.773Z,27.91
2023-05-25T13:48:40.727Z,29.80
2023-05-25T13:50:45.064Z,30.49
2023-05-25T13:52:49.097Z,30.15
2023-05-25T13:54:51.794Z,29.81
2023-05-25T13:56:54.401Z,30.79
2023-05-25T13:58:57.081Z,31.98
2023-05-25T14:01:01.132Z,33.31
2023-05-25T14:03:03.917Z,34.36
2023-05-25T14:05:07.400Z,35.00
2023-05-25T14:07:10.007Z,35.36
2023-05-25T14:09:13.573Z,36.42
2023-05-25T14:11:18.361Z,37.28
2023-05-25T14:13:22.714Z,37.54
2023-05-25T14:15:25.845Z,38.10
2023-05-25T14:17:29.814Z,38.47
2023-05-25T14:19:33.066Z,38.71
2023-05-25T14:21:35.787Z,38.90
2023-05-25T14:23:38.362Z,38.88
2023-05-25T14:25:44.232Z,38.90
2023-05-25T14:27:47.011Z,38.68
2023-05-25T14:29:49.901Z,38.84
2023-05-25T14:31:52.809Z,38.53
2023-05-25T14:33:56.951Z,38.65
2023-05-25T14:35:59.531Z,38.33
2023-05-25T14:38:02.164Z,38.23
2023-05-25T14:40:05.497Z,38.37
2023-05-25T14:42:08.604Z,38.36
2023-05-25T14:44:11.256Z,37.97
2023-05-25T14:46:14.160Z,37.60
2023-05-25T14:48:18.008Z,37.22
2023-05-25T14:50:22.014Z,37.30
2023-05-25T14:52:24.656Z,37.19
2023-05-25T14:54:27.685Z,37.01
2023-05-25T14:56:30.640Z,36.24
2023-05-25T14:58:34.169Z,35.89
2023-05-25T15:00:36.840Z,35.70
2023-05-25T15:02:39.487Z,35.41
2023-05-25T15:04:42.243Z,35.24
2023-05-25T15:06:46.201Z,34.63
2023-05-25T15:08:48.828Z,34.22
2023-05-25T15:10:52.666Z,33.90
2023-05-25T15:12:55.285Z,33.75
2023-05-25T15:14:57.843Z,33.44
2023-05-25T15:17:00.597Z,33.11
2023-05-25T15:19:03.237Z,32.70
2023-05-25T15:21:06.213Z,31.97
2023-05-25T15:23:10.151Z,31.26
2023-05-25T15:25:16.860Z,30.56
2023-05-25T15:27:22.091Z,30.18
2023-05-25T15:29:24.753Z,30.02
2023-05-25T15:31:27.379Z,29.93
2023-05-25T15:33:39.900Z,29.86
2023-05-25T15:35:51.002Z,29.64
2023-05-25T15:37:53.643Z,29.67
2023-05-25T15:39:57.606Z,29.64
2023-05-25T15:42:00.193Z,29.49
2023-05-25T15:44:02.998Z,29.40
2023-05-25T15:46:05.661Z,29.26
2023-05-25T15:48:10.171Z,29.11
2023-05-25T15:50:12.959Z,28.74
2023-05-25T15:52:16.337Z,28.03
2023-05-25T15:54:18.950Z,27.78
2023-05-25T15:56:23.048Z,27.61
2023-05-25T15:58:25.618Z,27.57
2023-05-25T16:00:30.546Z,27.58
2023-05-25T16:02:33.435Z,27.58
2023-05-25T16:04:36.060Z,27.57
2023-05-25T16:06:39.062Z,27.52
2023-05-25T16:08:41.684Z,27.48
2023-05-25T16:10:44.531Z,27.45
2023-05-25T16:12:48.548Z,27.44
2023-05-25T16:14:51.147Z,27.29
2023-05-25T16:16:53.843Z,27.29
2023-05-25T16:18:56.608Z,27.13
2023-05-25T16:20:59.278Z,27.08
2023-05-25T16:23:02.592Z,27.02
2023-05-25T16:25:05.768Z,27.00
2023-05-25T16:27:08.401Z,26.93
2023-05-25T16:29:12.400Z,26.76
2023-05-25T16:31:15.647Z,26.73
2023-05-25T16:33:18.312Z,26.61
2023-05-25T16:35:21.077Z,26.54
2023-05-25T16:37:23.688Z,26.52
2023-05-25T16:39:26.269Z,26.48
2023-05-25T16:41:28.866Z,26.42
2023-05-25T16:43:31.483Z,26.37
2023-05-25T16:45:35.544Z,26.24
2023-05-25T16:47:38.201Z,26.23
2023-05-25T16:49:40.974Z,26.16
2023-05-25T16:51:43.545Z,26.11
2023-05-25T16:53:46.148Z,26.06
2023-05-25T16:55:48.783Z,26.01
2023-05-25T16:57:51.371Z,25.88
2023-05-25T16:59:54.260Z,25.87
2023-05-25T17:01:59.190Z,25.79
2023-05-25T17:04:01.991Z,25.75
2023-05-25T17:06:04.851Z,25.61
2023-05-25T17:08:07.457Z,25.47
2023-05-25T17:10:10.462Z,25.44
2023-05-25T17:12:13.137Z,25.39
2023-05-25T17:14:15.831Z,25.28
2023-05-25T17:16:18.503Z,25.23
2023-05-25T17:18:22.654Z,25.19
2023-05-25T17:20:25.339Z,25.05
2023-05-25T17:22:28.061Z,25.03
2023-05-25T17:24:31.106Z,24.92
2023-05-25T17:26:36.090Z,24.85
2023-05-25T17:28:38.724Z,24.60
2023-05-25T17:30:41.357Z,24.63
2023-05-25T17:32:43.990Z,24.61
2023-05-25T17:34:48.014Z,24.52
2023-05-25T17:36:50.625Z,24.51
2023-05-25T17:38:53.276Z,24.47
2023-05-25T17:40:55.902Z,24.40
2023-05-25T17:42:58.464Z,24.36
2023-05-25T17:45:01.219Z,24.30
2023-05-25T17:47:03.918Z,24.24
2023-05-25T17:49:06.528Z,24.20
2023-05-25T17:51:13.041Z,24.12
2023-05-25T17:53:16.054Z,24.07
2023-05-25T17:55:20.442Z,24.02
2023-05-25T17:57:23.066Z,23.93
2023-05-25T17:59:25.690Z,23.85
2023-05-25T18:01:28.418Z,23.81
2023-05-25T18:03:31.158Z,23.75
2023-05-25T18:05:33.808Z,23.66
2023-05-25T18:07:37.760Z,23.58
2023-05-25T18:09:40.350Z,23.49
2023-05-25T18:11:42.934Z,23.37
2023-05-25T18:13:45.674Z,23.28
2023-05-25T18:15:48.265Z,23.21
2023-05-25T18:17:50.910Z,23.10
2023-05-25T18:19:53.640Z,23.02
2023-05-25T18:21:56.317Z,22.93
2023-05-25T18:24:00.415Z,22.84
2023-05-25T18:26:04.596Z,22.76
2023-05-25T18:28:07.241Z,22.68
2023-05-25T18:30:10.817Z,22.60
2023-05-25T18:32:13.456Z,22.51
2023-05-25T18:34:16.185Z,22.46
2023-05-25T18:36:18.797Z,22.37
2023-05-25T18:38:21.467Z,22.32
2023-05-25T18:40:25.655Z,22.25
2023-05-25T18:42:28.280Z,22.19
2023-05-25T18:44:30.951Z,22.14
2023-05-25T18:46:33.590Z,22.08
2023-05-25T18:48:36.524Z,22.01
2023-05-25T18:50:40.149Z,21.94
2023-05-25T18:52:42.808Z,21.85
2023-05-25T18:54:46.192Z,21.77
2023-05-25T18:56:50.176Z,21.69
2023-05-25T18:58:54.708Z,21.59
2023-05-25T19:00:57.305Z,21.50
2023-05-25T19:02:59.973Z,21.45
2023-05-25T19:05:02.713Z,21.33
2023-05-25T19:07:05.624Z,21.25
2023-05-25T19:09:08.617Z,21.13
2023-05-25T19:11:11.236Z,21.05
2023-05-25T19:13:15.369Z,20.98
2023-05-25T19:15:18.051Z,20.90
2023-05-25T19:17:21.008Z,20.85
2023-05-25T19:19:23.712Z,20.81
2023-05-25T19:21:26.752Z,20.75
2023-05-25T19:23:29.402Z,20.69
2023-05-25T19:25:32.088Z,20.63
2023-05-25T19:27:34.775Z,20.57
2023-05-25T19:29:38.739Z,20.51
2023-05-25T19:31:41.382Z,20.43
2023-05-25T19:33:44.046Z,20.33
2023-05-25T19:35:46.778Z,20.25
2023-05-25T19:37:49.521Z,20.21
2023-05-25T19:39:52.115Z,20.16
2023-05-25T19:41:54.749Z,20.07
2023-05-25T19:43:57.349Z,20.00
2023-05-25T19:46:01.375Z,19.87
2023-05-25T19:48:04.132Z,19.77
2023-05-25T19:50:08.418Z,19.71
2023-05-25T19:52:11.106Z,19.60
2023-05-25T19:54:13.771Z,19.54
2023-05-25T19:56:16.373Z,19.52
2023-05-25T19:58:19.005Z,19.45
2023-05-25T20:00:26.708Z,19.38
2023-05-25T20:02:31.400Z,19.36
2023-05-25T20:04:34.179Z,19.32
2023-05-25T20:06:37.470Z,19.19
2023-05-25T20:08:40.090Z,19.16
2023-05-25T20:10:44.607Z,19.09
2023-05-25T20:12:47.194Z,19.00
2023-05-25T20:14:49.919Z,18.92
2023-05-25T20:16:54.320Z,18.85
2023-05-25T20:18:58.287Z,18.80
2023-05-25T20:21:00.864Z,18.78
2023-05-25T20:23:03.850Z,18.75
2023-05-25T20:25:07.199Z,18.74
2023-05-25T20:27:09.884Z,18.66
2023-05-25T20:29:12.496Z,18.62
2023-05-25T20:31:15.107Z,18.57
2023-05-25T20:33:17.893Z,18.54
2023-05-25T20:35:21.850Z,18.49
2023-05-25T20:37:24.575Z,18.49
2023-05-25T20:39:27.275Z,18.47
2023-05-25T20:41:31.742Z,18.43
2023-05-25T20:43:34.348Z,18.35
2023-05-25T20:45:38.487Z,18.26
2023-05-25T20:47:41.653Z,18.20
2023-05-25T20:49:44.248Z,18.14
2023-05-25T20:51:50.036Z,18.13
2023-05-25T20:53:52.737Z,18.09
2023-05-25T20:55:55.409Z,18.03
2023-05-25T20:57:59.676Z,18.00
2023-05-25T21:00:02.326Z,17.92
2023-05-25T21:02:05.698Z,17.88
2023-05-25T21:04:08.495Z,17.84
2023-05-25T21:06:11.174Z,17.82
2023-05-25T21:08:15.167Z,17.79
2023-05-25T21:10:17.881Z,17.74
2023-05-25T21:12:20.468Z,17.69
2023-05-25T21:14:23.098Z,17.63
2023-05-25T21:16:26.184Z,17.53
2023-05-25T21:18:28.805Z,17.36
2023-05-25T21:20:31.462Z,17.20
2023-05-25T21:22:34.111Z,17.18
2023-05-25T21:24:38.059Z,17.12
2023-05-25T21:26:41.005Z,17.08
2023-05-25T21:28:43.644Z,16.91
2023-05-25T21:30:46.254Z,16.68
2023-05-25T21:32:48.939Z,16.55
2023-05-25T21:34:52.729Z,16.61
2023-05-25T21:36:55.323Z,16.67
2023-05-25T21:38:57.943Z,16.59
2023-05-25T21:41:01.884Z,16.57
2023-05-25T21:43:04.956Z,16.57
2023-05-25T21:45:08.429Z,16.60
2023-05-25T21:47:11.148Z,16.55
2023-05-25T21:49:13.858Z,16.41
2023-05-25T21:51:16.467Z,16.43
2023-05-25T21:53:19.309Z,16.41
2023-05-25T21:55:22.048Z,16.45
2023-05-25T21:57:25.993Z,16.48
2023-05-25T21:59:28.634Z,16.44
2023-05-25T22:01:31.295Z,16.46
2023-05-25T22:03:33.984Z,16.49
2023-05-25T22:05:36.682Z,16.44
2023-05-25T22:07:39.271Z,16.44
2023-05-25T22:09:41.889Z,16.45
2023-05-25T22:11:44.555Z,16.45
2023-05-25T22:13:48.463Z,16.47
2023-05-25T22:15:51.189Z,16.47
2023-05-25T22:17:53.848Z,16.51
2023-05-25T22:20:07.345Z,16.53
2023-05-25T22:22:11.009Z,16.54
2023-05-25T22:24:13.610Z,16.54
2023-05-25T22:26:16.253Z,16.54
2023-05-25T22:28:18.867Z,16.47
2023-05-25T22:30:22.828Z,16.45
2023-05-25T22:32:26.867Z,16.43
2023-05-25T22:34:32.108Z,16.43
2023-05-25T22:36:34.737Z,16.44
2023-05-25T22:38:37.537Z,16.44
2023-05-25T22:40:40.160Z,16.42
2023-05-25T22:42:45.037Z,16.40
2023-05-25T22:44:49.217Z,16.38
2023-05-25T22:46:53.203Z,16.35
2023-05-25T22:48:55.838Z,16.33
2023-05-25T22:50:58.415Z,16.30
2023-05-25T22:53:01.075Z,16.27
2023-05-25T22:55:03.836Z,16.25
2023-05-25T22:57:07.035Z,16.20
2023-05-25T22:59:09.602Z,16.17
2023-05-25T23:01:12.203Z,16.16
2023-05-25T23:03:16.381Z,16.17
2023-05-25T23:05:19.042Z,16.20
2023-05-25T23:07:21.842Z,16.21
2023-05-25T23:09:24.477Z,16.19
2023-05-25T23:11:27.219Z,16.12
2023-05-25T23:13:29.895Z,16.06
2023-05-25T23:15:32.534Z,16.04
2023-05-25T23:17:35.483Z,16.01
2023-05-25T23:19:40.323Z,16.01
2023-05-25T23:21:42.950Z,16.02
2023-05-25T23:23:45.540Z,16.04
2023-05-25T23:25:48.311Z,16.08
2023-05-25T23:27:50.928Z,16.13
2023-05-25T23:29:56.121Z,16.15
2023-05-25T23:31:58.716Z,16.16
2023-05-25T23:34:01.400Z,16.15
2023-05-25T23:36:05.711Z,16.12
2023-05-25T23:38:08.316Z,16.05
2023-05-25T23:40:12.046Z,15.99
2023-05-25T23:42:15.479Z,15.90
2023-05-25T23:44:18.151Z,15.82
2023-05-25T23:46:20.851Z,15.75
2023-05-25T23:48:23.480Z,15.69
2023-05-25T23:50:26.131Z,15.68
2023-05-25T23:52:30.108Z,15.68
2023-05-25T23:54:32.732Z,15.72
2023-05-25T23:56:35.521Z,15.74
2023-05-25T23:58:38.093Z,15.77
